createdAt,value
2022-07-29T00:01:08.887Z,23.09
2022-07-29T00:03:46.950Z,23.10
2022-07-29T00:06:15.094Z,23.07
2022-07-29T00:08:42.391Z,23.06
2022-07-29T00:11:09.788Z,23.01
2022-07-29T00:13:37.065Z,22.99
2022-07-29T00:16:05.051Z,22.99
2022-07-29T00:18:32.976Z,23.06
2022-07-29T00:21:00.889Z,23.05
2022-07-29T00:23:28.167Z,22.99
2022-07-29T00:25:55.511Z,22.92
2022-07-29T00:28:22.777Z,22.89
2022-07-29T00:30:50.083Z,22.86
2022-07-29T00:33:17.446Z,22.85
2022-07-29T00:35:44.730Z,22.85
2022-07-29T00:38:12.902Z,22.89
2022-07-29T00:40:40.553Z,22.99
2022-07-29T00:43:12.195Z,23.02
2022-07-29T00:45:39.535Z,22.98
2022-07-29T00:48:07.563Z,22.98
2022-07-29T00:50:34.877Z,22.99
2022-07-29T00:53:03.436Z,23.00
2022-07-29T00:55:30.779Z,23.00
2022-07-29T00:57:59.155Z,22.99
2022-07-29T01:00:28.109Z,22.97
2022-07-29T01:02:55.503Z,22.97
2022-07-29T01:05:24.171Z,22.96
2022-07-29T01:07:53.521Z,22.97
2022-07-29T01:10:22.087Z,23.00
2022-07-29T01:12:51.131Z,23.01
2022-07-29T01:15:18.508Z,23.15
2022-07-29T01:17:52.666Z,23.17
2022-07-29T01:20:32.603Z,23.09
2022-07-29T01:22:59.831Z,23.05
2022-07-29T01:25:27.242Z,23.01
2022-07-29T01:28:04.554Z,22.97
2022-07-29T01:30:33.431Z,22.93
2022-07-29T01:33:03.973Z,22.91
2022-07-29T01:35:49.238Z,22.87
2022-07-29T01:38:23.213Z,22.82
2022-07-29T01:40:52.367Z,22.78
2022-07-29T01:43:28.486Z,22.86
2022-07-29T01:46:02.395Z,22.83
2022-07-29T01:48:36.070Z,22.80
2022-07-29T01:51:03.321Z,22.74
2022-07-29T01:53:37.715Z,22.66
2022-07-29T01:56:07.553Z,22.60
2022-07-29T01:58:36.971Z,22.54
2022-07-29T02:01:05.187Z,22.50
2022-07-29T02:03:33.544Z,22.47
2022-07-29T02:06:02.594Z,22.44
2022-07-29T02:08:31.495Z,22.40
2022-07-29T02:10:59.578Z,22.48
2022-07-29T02:13:27.701Z,22.54
2022-07-29T02:15:56.813Z,22.48
2022-07-29T02:18:26.141Z,22.40
2022-07-29T02:20:54.995Z,22.31
2022-07-29T02:23:23.994Z,22.27
2022-07-29T02:25:53.843Z,22.21
2022-07-29T02:28:23.094Z,22.20
2022-07-29T02:30:51.524Z,22.18
2022-07-29T02:33:19.575Z,22.13
2022-07-29T02:35:48.120Z,22.07
2022-07-29T02:38:35.437Z,22.04
2022-07-29T02:41:05.454Z,22.00
2022-07-29T02:43:33.873Z,21.98
2022-07-29T02:46:01.864Z,21.98
2022-07-29T02:48:34.303Z,21.99
2022-07-29T02:51:43.400Z,21.95
2022-07-29T02:54:08.537Z,21.93
2022-07-29T02:56:36.117Z,21.92
2022-07-29T02:59:05.186Z,21.90
2022-07-29T03:01:33.772Z,21.90
2022-07-29T03:04:02.519Z,21.89
2022-07-29T03:06:38.322Z,21.89
2022-07-29T03:09:12.981Z,21.80
2022-07-29T03:11:49.582Z,21.88
2022-07-29T03:14:19.357Z,21.80
2022-07-29T03:16:47.794Z,21.70
2022-07-29T03:19:15.528Z,21.68
2022-07-29T03:21:42.850Z,21.61
2022-07-29T03:24:10.781Z,21.55
2022-07-29T03:26:38.546Z,21.49
2022-07-29T03:29:05.918Z,21.47
2022-07-29T03:31:34.371Z,21.45
2022-07-29T03:34:01.631Z,21.48
2022-07-29T03:36:28.911Z,21.47
2022-07-29T03:38:56.847Z,21.46
2022-07-29T03:41:25.621Z,21.42
2022-07-29T03:43:53.770Z,21.36
2022-07-29T03:46:23.645Z,21.28
2022-07-29T03:48:53.941Z,21.27
2022-07-29T03:51:33.481Z,21.24
2022-07-29T03:54:14.090Z,21.29
2022-07-29T03:56:43.214Z,21.35
2022-07-29T03:59:11.501Z,21.37
2022-07-29T04:01:39.833Z,21.42
2022-07-29T04:04:07.284Z,21.48
2022-07-29T04:06:41.499Z,21.49
2022-07-29T04:09:09.760Z,21.47
2022-07-29T04:11:56.974Z,21.42
2022-07-29T04:14:26.379Z,21.40
2022-07-29T04:16:54.086Z,21.40
2022-07-29T04:19:21.364Z,21.36
2022-07-29T04:21:48.627Z,21.34
2022-07-29T04:24:16.250Z,21.33
2022-07-29T04:26:44.769Z,21.35
2022-07-29T04:29:12.956Z,21.39
2022-07-29T04:31:40.292Z,21.39
2022-07-29T04:34:07.862Z,21.41
2022-07-29T04:36:35.140Z,21.42
2022-07-29T04:39:02.410Z,21.46
2022-07-29T04:41:33.390Z,21.48
2022-07-29T04:44:06.917Z,21.49
2022-07-29T04:46:34.956Z,21.52
2022-07-29T04:49:03.443Z,21.55
2022-07-29T04:51:30.807Z,21.56
2022-07-29T04:53:58.143Z,21.57
2022-07-29T04:56:25.417Z,21.57
2022-07-29T04:58:52.720Z,21.59
2022-07-29T05:01:20.270Z,21.63
2022-07-29T05:03:47.635Z,21.70
2022-07-29T05:06:15.130Z,21.78
2022-07-29T05:08:42.447Z,21.90
2022-07-29T05:11:11.727Z,22.00
2022-07-29T05:13:45.756Z,22.08
2022-07-29T05:16:14.514Z,22.18
2022-07-29T05:18:42.256Z,22.30
2022-07-29T05:21:09.537Z,22.41
2022-07-29T05:23:36.901Z,22.50
2022-07-29T05:26:04.249Z,22.61
2022-07-29T05:28:34.857Z,22.76
2022-07-29T05:31:02.198Z,22.87
2022-07-29T05:33:35.633Z,23.02
2022-07-29T05:36:06.618Z,23.17
2022-07-29T05:38:34.445Z,23.31
2022-07-29T05:41:01.898Z,23.43
2022-07-29T05:43:29.641Z,23.57
2022-07-29T05:45:57.714Z,23.68
2022-07-29T05:48:25.297Z,23.76
2022-07-29T05:50:52.581Z,23.90
2022-07-29T05:53:20.825Z,23.95
2022-07-29T05:55:48.889Z,24.04
2022-07-29T05:58:16.358Z,24.17
2022-07-29T06:00:43.616Z,24.28
2022-07-29T06:03:10.972Z,24.41
2022-07-29T06:05:38.404Z,24.54
2022-07-29T06:08:08.154Z,24.68
2022-07-29T06:10:36.236Z,24.79
2022-07-29T06:13:03.640Z,24.88
2022-07-29T06:15:30.980Z,24.99
2022-07-29T06:18:00.126Z,25.05
2022-07-29T06:20:32.101Z,25.16
2022-07-29T06:23:00.197Z,25.30
2022-07-29T06:25:30.245Z,25.47
2022-07-29T06:27:58.419Z,25.58
2022-07-29T06:30:25.815Z,25.62
2022-07-29T06:32:53.404Z,25.68
2022-07-29T06:35:38.666Z,25.79
2022-07-29T06:38:16.026Z,25.94
2022-07-29T06:41:01.139Z,26.09
2022-07-29T06:43:35.982Z,26.12
2022-07-29T06:46:19.556Z,26.21
2022-07-29T06:48:48.547Z,26.35
2022-07-29T06:51:16.369Z,26.34
2022-07-29T06:53:59.958Z,26.33
2022-07-29T06:56:39.084Z,26.48
2022-07-29T06:59:08.162Z,26.57
2022-07-29T07:01:36.790Z,26.62
2022-07-29T07:04:04.169Z,26.71
2022-07-29T07:06:31.442Z,26.81
2022-07-29T07:08:58.803Z,26.86
2022-07-29T07:11:26.126Z,26.89
2022-07-29T07:13:53.473Z,26.88
2022-07-29T07:16:20.797Z,26.99
2022-07-29T07:18:48.139Z,27.13
2022-07-29T07:21:19.116Z,27.16
2022-07-29T07:23:47.200Z,27.26
2022-07-29T07:26:14.548Z,27.45
2022-07-29T07:28:41.850Z,27.60
2022-07-29T07:31:09.323Z,27.71
2022-07-29T07:33:36.611Z,27.76
2022-07-29T07:36:04.466Z,27.74
2022-07-29T07:38:31.713Z,27.86
2022-07-29T07:40:59.054Z,27.95
2022-07-29T07:43:26.332Z,27.99
2022-07-29T07:45:53.867Z,27.93
2022-07-29T07:48:21.459Z,28.07
2022-07-29T07:50:50.347Z,28.17
2022-07-29T07:53:17.785Z,28.26
2022-07-29T07:56:09.511Z,28.41
2022-07-29T07:58:32.543Z,28.47
2022-07-29T08:00:59.838Z,28.60
2022-07-29T08:03:27.195Z,28.72
2022-07-29T08:05:55.325Z,28.83
2022-07-29T08:08:22.633Z,28.88
2022-07-29T08:11:00.653Z,28.82
2022-07-29T08:13:31.406Z,28.92
2022-07-29T08:16:00.760Z,29.09
2022-07-29T08:18:29.725Z,29.19
2022-07-29T08:20:57.682Z,29.19
2022-07-29T08:23:25.255Z,29.21
2022-07-29T08:25:54.916Z,29.41
2022-07-29T08:28:25.809Z,29.50
2022-07-29T08:30:53.522Z,29.58
2022-07-29T08:33:20.792Z,29.71
2022-07-29T08:35:48.106Z,29.74
2022-07-29T08:38:15.375Z,29.55
2022-07-29T08:40:42.682Z,29.60
2022-07-29T08:43:09.991Z,29.75
2022-07-29T08:45:48.454Z,29.80
2022-07-29T08:48:17.247Z,30.01
2022-07-29T08:50:46.382Z,30.07
2022-07-29T08:53:15.923Z,30.29
2022-07-29T08:55:47.687Z,30.39
2022-07-29T08:58:15.911Z,30.55
2022-07-29T09:00:45.210Z,30.69
2022-07-29T09:03:21.618Z,30.86
2022-07-29T09:05:49.319Z,30.86
2022-07-29T09:08:17.447Z,30.80
2022-07-29T09:10:45.147Z,30.88
2022-07-29T09:13:12.550Z,30.99
2022-07-29T09:15:39.934Z,31.13
2022-07-29T09:18:07.238Z,31.15
2022-07-29T09:21:00.522Z,31.13
2022-07-29T09:23:27.790Z,31.25
2022-07-29T09:25:55.154Z,31.26
2022-07-29T09:28:24.702Z,31.49
2022-07-29T09:30:56.500Z,31.57
2022-07-29T09:33:24.197Z,31.76
2022-07-29T09:36:03.272Z,31.82
2022-07-29T09:38:31.486Z,31.88
2022-07-29T09:40:59.911Z,31.81
2022-07-29T09:43:33.570Z,31.82
2022-07-29T09:46:13.750Z,31.99
2022-07-29T09:48:41.220Z,32.13
2022-07-29T09:51:24.246Z,32.12
2022-07-29T09:53:55.754Z,32.27
2022-07-29T09:56:41.936Z,32.35
2022-07-29T09:59:09.985Z,32.44
2022-07-29T10:01:37.286Z,32.48
2022-07-29T10:04:04.653Z,32.52
2022-07-29T10:06:32.029Z,32.53
2022-07-29T10:09:10.153Z,32.50
2022-07-29T10:11:48.813Z,32.55
2022-07-29T10:14:17.236Z,32.63
2022-07-29T10:16:44.579Z,32.72
2022-07-29T10:19:11.853Z,32.64
2022-07-29T10:21:40.796Z,32.45
2022-07-29T10:24:15.021Z,32.59
2022-07-29T10:26:43.099Z,32.64
2022-07-29T10:29:10.573Z,32.82
2022-07-29T10:31:51.089Z,32.88
2022-07-29T10:34:24.734Z,32.88
2022-07-29T10:37:08.607Z,32.94
2022-07-29T10:39:44.616Z,33.04
2022-07-29T10:42:16.860Z,33.20
2022-07-29T10:44:44.786Z,33.27
2022-07-29T10:47:21.143Z,33.34
2022-07-29T10:49:57.170Z,33.39
2022-07-29T10:52:30.234Z,33.33
2022-07-29T10:54:59.590Z,33.34
2022-07-29T10:57:54.178Z,33.47
2022-07-29T11:00:16.857Z,33.35
2022-07-29T11:05:52.540Z,33.65
2022-07-29T11:08:26.467Z,33.74
2022-07-29T11:11:17.521Z,33.68
2022-07-29T11:13:46.421Z,33.79
2022-07-29T11:16:16.012Z,33.74
2022-07-29T11:19:02.077Z,33.54
2022-07-29T11:21:54.706Z,33.49
2022-07-29T11:27:18.252Z,33.56
2022-07-29T11:29:51.279Z,33.60
2022-07-29T11:32:22.760Z,33.63
2022-07-29T11:35:17.169Z,33.68
2022-07-29T11:37:52.224Z,33.81
2022-07-29T11:40:23.000Z,33.86
2022-07-29T11:42:52.254Z,33.91
2022-07-29T11:45:43.639Z,34.02
2022-07-29T11:48:31.491Z,34.13
2022-07-29T11:51:00.638Z,34.28
2022-07-29T11:53:29.020Z,34.35
2022-07-29T11:56:00.456Z,34.36
2022-07-29T11:58:29.412Z,34.46
2022-07-29T12:00:57.763Z,34.48
2022-07-29T12:03:32.898Z,34.46
2022-07-29T12:06:04.096Z,34.53
2022-07-29T12:08:31.569Z,34.53
2022-07-29T12:10:58.962Z,34.54
2022-07-29T12:13:37.421Z,34.63
2022-07-29T12:16:05.485Z,34.63
2022-07-29T12:18:33.210Z,34.50
2022-07-29T12:21:03.691Z,34.52
2022-07-29T12:23:34.957Z,34.61
2022-07-29T12:26:07.668Z,34.60
2022-07-29T12:28:39.284Z,34.57
2022-07-29T12:31:06.644Z,34.57
2022-07-29T12:33:36.174Z,34.52
2022-07-29T12:36:07.261Z,34.61
2022-07-29T12:38:36.864Z,34.77
2022-07-29T12:41:04.935Z,34.78
2022-07-29T12:43:32.645Z,34.74
2022-07-29T12:46:12.307Z,34.80
2022-07-29T12:48:41.009Z,35.01
2022-07-29T12:51:09.791Z,35.13
2022-07-29T12:53:37.495Z,35.12
2022-07-29T12:56:20.634Z,35.14
2022-07-29T12:58:53.103Z,35.05
2022-07-29T13:01:21.179Z,35.07
2022-07-29T13:03:57.491Z,35.11
2022-07-29T13:06:46.163Z,35.10
2022-07-29T13:09:20.883Z,35.09
2022-07-29T13:11:49.293Z,34.92
2022-07-29T13:14:35.188Z,34.83
2022-07-29T13:17:16.756Z,34.64
2022-07-29T13:19:44.010Z,34.48
2022-07-29T13:22:12.231Z,34.50
2022-07-29T13:25:11.968Z,34.63
2022-07-29T13:27:40.540Z,34.73
2022-07-29T13:30:08.941Z,34.84
2022-07-29T13:32:37.291Z,34.89
2022-07-29T13:35:06.241Z,34.96
2022-07-29T13:37:35.740Z,34.96
2022-07-29T13:40:04.279Z,34.94
2022-07-29T13:42:32.774Z,34.87
2022-07-29T13:45:00.685Z,34.86
2022-07-29T13:47:32.232Z,34.90
2022-07-29T13:50:05.140Z,34.82
2022-07-29T13:52:34.345Z,34.80
2022-07-29T13:55:01.899Z,34.69
2022-07-29T13:57:29.361Z,34.78
2022-07-29T13:59:56.958Z,34.86
2022-07-29T14:02:25.869Z,34.84
2022-07-29T14:04:56.280Z,34.86
2022-07-29T14:07:23.763Z,34.99
2022-07-29T14:09:51.248Z,35.05
2022-07-29T14:12:18.875Z,35.12
2022-07-29T14:14:47.383Z,35.09
2022-07-29T14:17:15.250Z,35.10
2022-07-29T14:19:42.655Z,35.07
2022-07-29T14:22:10.691Z,35.01
2022-07-29T14:24:38.910Z,35.05
2022-07-29T14:27:07.553Z,34.95
2022-07-29T14:29:38.253Z,34.95
2022-07-29T14:32:06.443Z,34.92
2022-07-29T14:34:34.966Z,34.98
2022-07-29T14:37:03.751Z,35.05
2022-07-29T14:39:31.681Z,35.14
2022-07-29T14:42:00.238Z,35.19
2022-07-29T14:44:32.103Z,35.19
2022-07-29T14:47:00.763Z,35.19
2022-07-29T14:49:28.210Z,35.16
2022-07-29T14:51:55.661Z,35.14
2022-07-29T14:54:23.718Z,35.14
2022-07-29T14:56:51.906Z,35.16
2022-07-29T14:59:19.956Z,35.14
2022-07-29T15:01:47.250Z,35.16
2022-07-29T15:04:14.499Z,35.22
2022-07-29T15:06:41.964Z,35.21
2022-07-29T15:09:09.307Z,35.15
2022-07-29T15:11:38.255Z,35.17
2022-07-29T15:14:06.874Z,35.19
2022-07-29T15:16:36.575Z,35.19
2022-07-29T15:19:04.288Z,35.24
2022-07-29T15:21:31.688Z,35.32
2022-07-29T15:23:58.999Z,35.41
2022-07-29T15:26:26.491Z,35.51
2022-07-29T15:28:53.809Z,35.52
2022-07-29T15:31:21.098Z,35.42
2022-07-29T15:33:48.664Z,35.39
2022-07-29T15:36:42.212Z,35.43
2022-07-29T15:39:03.394Z,35.56
2022-07-29T15:41:30.709Z,35.62
2022-07-29T15:43:57.987Z,35.70
2022-07-29T15:46:43.871Z,35.77
2022-07-29T15:49:11.272Z,35.79
2022-07-29T15:51:38.585Z,35.72
2022-07-29T15:54:06.028Z,35.69
2022-07-29T15:56:33.381Z,35.72
2022-07-29T15:59:00.937Z,35.73
2022-07-29T16:01:28.343Z,35.68
2022-07-29T16:03:56.084Z,35.67
2022-07-29T16:06:24.618Z,35.66
2022-07-29T16:08:51.894Z,35.74
2022-07-29T16:11:19.134Z,35.74
2022-07-29T16:13:46.402Z,35.69
2022-07-29T16:16:13.948Z,35.89
2022-07-29T16:18:41.238Z,36.03
2022-07-29T16:21:08.517Z,36.14
2022-07-29T16:23:35.789Z,36.39
2022-07-29T16:26:03.155Z,36.55
2022-07-29T16:28:30.900Z,36.77
2022-07-29T16:30:58.247Z,37.08
2022-07-29T16:33:25.526Z,37.37
2022-07-29T16:35:52.841Z,37.63
2022-07-29T16:38:20.470Z,38.02
2022-07-29T16:40:47.756Z,38.26
2022-07-29T16:43:15.170Z,38.53
2022-07-29T16:45:46.032Z,38.69
2022-07-29T16:48:14.338Z,38.65
2022-07-29T16:50:43.370Z,38.70
2022-07-29T16:53:11.108Z,38.66
2022-07-29T16:55:38.814Z,38.64
2022-07-29T16:58:10.139Z,38.43
2022-07-29T17:00:37.626Z,38.32
2022-07-29T17:03:05.525Z,38.11
2022-07-29T17:05:52.392Z,37.86
2022-07-29T17:08:20.184Z,37.01
2022-07-29T17:10:47.580Z,36.12
2022-07-29T17:13:15.010Z,35.42
2022-07-29T17:15:45.318Z,34.87
2022-07-29T17:18:13.193Z,34.38
2022-07-29T17:20:41.045Z,34.01
2022-07-29T17:23:08.390Z,33.65
2022-07-29T17:25:35.830Z,33.31
2022-07-29T17:28:03.254Z,33.09
2022-07-29T17:30:30.563Z,32.81
2022-07-29T17:32:57.867Z,32.61
2022-07-29T17:35:45.652Z,32.43
2022-07-29T17:38:13.063Z,32.18
2022-07-29T17:40:40.350Z,32.03
2022-07-29T17:43:09.293Z,31.91
2022-07-29T17:45:48.698Z,31.77
2022-07-29T17:48:18.885Z,31.66
2022-07-29T17:50:47.225Z,31.51
2022-07-29T17:53:16.389Z,31.38
2022-07-29T17:55:45.722Z,31.22
2022-07-29T17:58:13.240Z,31.07
2022-07-29T18:00:40.681Z,30.95
2022-07-29T18:03:08.082Z,30.87
2022-07-29T18:05:35.418Z,30.80
2022-07-29T18:08:02.674Z,30.75
2022-07-29T18:10:30.346Z,30.65
2022-07-29T18:12:57.836Z,30.56
2022-07-29T18:15:25.305Z,30.48
2022-07-29T18:17:52.905Z,30.40
2022-07-29T18:20:28.306Z,30.33
2022-07-29T18:22:55.583Z,30.24
2022-07-29T18:25:23.655Z,30.16
2022-07-29T18:27:51.153Z,30.10
2022-07-29T18:30:19.278Z,30.07
2022-07-29T18:33:04.929Z,30.04
2022-07-29T18:35:34.043Z,30.02
2022-07-29T18:38:03.120Z,29.99
2022-07-29T18:40:30.858Z,29.94
2022-07-29T18:42:58.163Z,29.88
2022-07-29T18:45:28.638Z,29.81
2022-07-29T18:47:56.656Z,29.78
2022-07-29T18:50:28.907Z,29.72
2022-07-29T18:52:58.794Z,29.68
2022-07-29T18:55:26.843Z,29.65
2022-07-29T18:57:56.633Z,29.59
2022-07-29T19:00:25.259Z,29.54
2022-07-29T19:02:52.890Z,29.55
2022-07-29T19:05:20.811Z,29.56
2022-07-29T19:07:48.153Z,29.56
2022-07-29T19:10:15.580Z,29.55
2022-07-29T19:12:43.071Z,29.57
2022-07-29T19:15:10.831Z,29.54
2022-07-29T19:17:38.778Z,29.56
2022-07-29T19:20:07.211Z,29.56
2022-07-29T19:22:34.907Z,29.54
2022-07-29T19:25:02.214Z,29.50
2022-07-29T19:27:29.638Z,29.50
2022-07-29T19:29:59.417Z,29.45
2022-07-29T19:32:26.922Z,29.42
2022-07-29T19:35:12.933Z,29.39
2022-07-29T19:37:40.272Z,29.35
2022-07-29T19:40:07.689Z,29.32
2022-07-29T19:42:35.054Z,29.25
2022-07-29T19:45:02.336Z,29.22
2022-07-29T19:47:29.610Z,29.16
2022-07-29T19:49:56.878Z,29.13
2022-07-29T19:52:24.131Z,29.09
2022-07-29T19:54:51.513Z,29.06
2022-07-29T19:57:19.164Z,29.00
2022-07-29T19:59:46.420Z,28.95
2022-07-29T20:02:13.814Z,28.90
2022-07-29T20:04:42.883Z,28.83
2022-07-29T20:07:10.227Z,28.79
2022-07-29T20:09:40.012Z,28.74
2022-07-29T20:12:10.397Z,28.68
2022-07-29T20:14:37.774Z,28.58
2022-07-29T20:17:05.157Z,28.52
2022-07-29T20:19:33.237Z,28.45
2022-07-29T20:22:00.545Z,28.39
2022-07-29T20:24:27.890Z,28.31
2022-07-29T20:26:55.244Z,28.22
2022-07-29T20:29:22.718Z,28.17
2022-07-29T20:31:53.255Z,28.15
2022-07-29T20:34:23.733Z,28.09
2022-07-29T20:36:51.047Z,28.05
2022-07-29T20:39:18.406Z,28.00
2022-07-29T20:41:45.655Z,27.95
2022-07-29T20:44:12.984Z,27.90
2022-07-29T20:46:40.421Z,27.80
2022-07-29T20:49:08.284Z,27.74
2022-07-29T20:51:43.336Z,27.68
2022-07-29T20:54:11.785Z,27.62
2022-07-29T20:56:39.616Z,27.54
2022-07-29T20:59:07.333Z,27.45
2022-07-29T21:01:35.148Z,27.38
2022-07-29T21:04:03.068Z,27.34
2022-07-29T21:06:30.489Z,27.29
2022-07-29T21:08:59.646Z,27.24
2022-07-29T21:11:43.445Z,27.18
2022-07-29T21:14:31.729Z,27.17
2022-07-29T21:16:59.269Z,27.14
2022-07-29T21:19:26.828Z,27.11
2022-07-29T21:21:54.180Z,27.07
2022-07-29T21:24:21.446Z,27.04
2022-07-29T21:27:10.918Z,27.03
2022-07-29T21:29:36.021Z,27.01
2022-07-29T21:32:03.418Z,26.98
2022-07-29T21:34:30.709Z,26.94
2022-07-29T21:36:58.002Z,26.90
2022-07-29T21:39:25.420Z,26.88
2022-07-29T21:41:52.674Z,26.87
2022-07-29T21:44:21.774Z,26.83
2022-07-29T21:46:49.456Z,26.81
2022-07-29T21:49:16.874Z,26.75
2022-07-29T21:51:44.276Z,26.72
2022-07-29T21:54:11.752Z,26.67
2022-07-29T21:56:39.022Z,26.64
2022-07-29T21:59:09.613Z,26.58
2022-07-29T22:01:39.066Z,26.57
2022-07-29T22:04:06.893Z,26.56
2022-07-29T22:06:34.649Z,26.55
2022-07-29T22:09:01.922Z,26.54
2022-07-29T22:11:29.294Z,26.48
2022-07-29T22:13:56.761Z,26.44
2022-07-29T22:16:24.060Z,26.38
2022-07-29T22:18:51.380Z,26.39
2022-07-29T22:21:18.691Z,26.39
2022-07-29T22:23:45.953Z,26.38
2022-07-29T22:26:13.282Z,26.36
2022-07-29T22:28:40.621Z,26.31
2022-07-29T22:31:08.012Z,26.29
2022-07-29T22:33:35.367Z,26.26
2022-07-29T22:36:02.662Z,26.22
2022-07-29T22:38:29.950Z,26.19
2022-07-29T22:41:00.588Z,26.14
2022-07-29T22:43:28.886Z,26.09
2022-07-29T22:45:56.220Z,26.05
2022-07-29T22:48:23.519Z,26.02
2022-07-29T22:50:50.765Z,26.00
2022-07-29T22:53:18.039Z,25.98
2022-07-29T22:55:45.905Z,25.96
2022-07-29T22:58:13.197Z,25.91
2022-07-29T23:00:41.213Z,25.88
2022-07-29T23:03:08.535Z,25.88
2022-07-29T23:05:35.910Z,25.85
2022-07-29T23:08:03.331Z,25.80
2022-07-29T23:10:30.650Z,25.76
2022-07-29T23:12:58.017Z,25.69
2022-07-29T23:15:25.296Z,25.64
2022-07-29T23:17:52.546Z,25.61
2022-07-29T23:20:19.834Z,25.58
2022-07-29T23:22:47.166Z,25.56
2022-07-29T23:25:14.659Z,25.55
2022-07-29T23:27:41.915Z,25.54
2022-07-29T23:30:09.446Z,25.52
2022-07-29T23:32:36.779Z,25.50
2022-07-29T23:35:05.590Z,25.47
2022-07-29T23:37:33.686Z,25.44
2022-07-29T23:40:00.962Z,25.42
2022-07-29T23:42:28.231Z,25.40
2022-07-29T23:44:55.496Z,25.36
2022-07-29T23:47:23.005Z,25.36
2022-07-29T23:49:50.333Z,25.31
2022-07-29T23:52:17.794Z,25.28
2022-07-29T23:54:45.096Z,25.25
2022-07-29T23:57:12.360Z,25.23
2022-07-29T23:59:39.719Z,25.22
